createdAt,value
2017-03-12T00:00:29.915Z,74.2
2017-03-12T00:01:40.169Z,73.92
2017-03-12T00:02:50.402Z,73.72
2017-03-12T00:04:00.629Z,73.72
2017-03-12T00:05:09.697Z,73.72
2017-03-12T00:06:18.767Z,73.72
2017-03-12T00:07:28.642Z,73.63
2017-03-12T00:08:38.101Z,73.82
2017-03-12T00:09:48.380Z,73.44
2017-03-12T00:10:57.885Z,73.54
2017-03-12T00:12:08.370Z,73.25
2017-03-12T00:13:18.304Z,73.72
2017-03-12T00:14:28.551Z,73.54
2017-03-12T00:15:38.795Z,73.35
2017-03-12T00:16:48.693Z,73.54
2017-03-12T00:17:59.339Z,73.35
2017-03-12T00:19:09.271Z,72.97
2017-03-12T00:20:19.513Z,72.59
2017-03-12T00:21:29.044Z,72.97
2017-03-12T00:22:38.907Z,72.68
2017-03-12T00:23:48.611Z,72.63
2017-03-12T00:24:59.300Z,72.4
2017-03-12T00:26:08.440Z,72.68
2017-03-12T00:27:17.979Z,72.59
2017-03-12T00:28:27.474Z,72.44
2017-03-12T00:29:36.947Z,72.49
2017-03-12T00:30:47.180Z,72.3
2017-03-12T00:31:57.018Z,72.88
2017-03-12T00:33:06.103Z,72.78
2017-03-12T00:34:15.601Z,72.59
2017-03-12T00:35:25.815Z,72.4
2017-03-12T00:36:36.282Z,72.3
2017-03-12T00:37:46.523Z,72.49
2017-03-12T00:38:55.989Z,72.81
2017-03-12T00:40:05.817Z,72.59
2017-03-12T00:41:14.927Z,72.63
2017-03-12T00:42:24.409Z,72.63
2017-03-12T00:43:34.261Z,72.68
2017-03-12T00:44:44.482Z,72.68
2017-03-12T00:45:54.961Z,72.4
2017-03-12T00:47:05.220Z,72.63
2017-03-12T00:48:15.069Z,72.78
2017-03-12T00:49:24.151Z,72.49
2017-03-12T00:50:33.620Z,72.88
2017-03-12T00:51:44.241Z,72.68
2017-03-12T00:52:54.483Z,73.25
2017-03-12T00:54:03.958Z,73.35
2017-03-12T00:55:14.197Z,74.01
2017-03-12T00:56:24.062Z,73.92
2017-03-12T00:57:33.909Z,73.72
2017-03-12T00:58:44.136Z,73.82
2017-03-12T00:59:54.358Z,73.82
2017-03-12T01:01:04.577Z,73.63
2017-03-12T01:02:15.189Z,73.82
2017-03-12T01:03:24.669Z,73.72
2017-03-12T01:04:35.284Z,74.11
2017-03-12T01:05:45.152Z,74.2
2017-03-12T01:06:54.994Z,74.01
2017-03-12T01:08:04.834Z,74.3
2017-03-12T01:09:15.057Z,74.39
2017-03-12T01:10:25.666Z,73.88
2017-03-12T01:11:35.149Z,74.64
2017-03-12T01:12:45.396Z,74.73
2017-03-12T01:13:55.225Z,74.26
2017-03-12T01:15:04.693Z,74.83
2017-03-12T01:16:14.532Z,74.83
2017-03-12T01:17:24.370Z,74.73
2017-03-12T01:18:34.236Z,74.54
2017-03-12T01:19:44.485Z,74.73
2017-03-12T01:20:54.717Z,74.73
2017-03-12T01:22:04.956Z,74.64
2017-03-12T01:23:14.790Z,74.87
2017-03-12T01:24:25.017Z,74.35
2017-03-12T01:25:34.862Z,74.83
2017-03-12T01:26:44.206Z,74.35
2017-03-12T01:27:53.680Z,74.92
2017-03-12T01:29:03.538Z,75.11
2017-03-12T01:30:13.022Z,75.49
2017-03-12T01:31:22.508Z,74.92
2017-03-12T01:32:32.731Z,75.49
2017-03-12T01:33:42.562Z,75.4
2017-03-12T01:34:53.196Z,76.06
2017-03-12T01:36:03.826Z,75.87
2017-03-12T01:37:14.038Z,75.68
2017-03-12T01:38:24.197Z,76.34
2017-03-12T01:39:33.278Z,76.15
2017-03-12T01:40:43.131Z,76.25
2017-03-12T01:41:53.396Z,76.15
2017-03-12T01:43:02.458Z,76.03
2017-03-12T01:44:12.309Z,76.34
2017-03-12T01:45:21.402Z,76.44
2017-03-12T01:46:31.245Z,76.78
2017-03-12T01:47:41.483Z,76.63
2017-03-12T01:48:52.109Z,76.5
2017-03-12T01:50:01.960Z,76.59
2017-03-12T01:51:11.410Z,76.59
2017-03-12T01:52:21.626Z,76.31
2017-03-12T01:53:31.497Z,76.97
2017-03-12T01:54:42.111Z,77.16
2017-03-12T01:55:52.622Z,76.97
2017-03-12T01:57:02.503Z,77.25
2017-03-12T01:58:12.366Z,77.16
2017-03-12T01:59:22.591Z,77.16
2017-03-12T02:00:32.052Z,77.25
2017-03-12T02:01:41.518Z,77.92
2017-03-12T02:02:51.760Z,77.73
2017-03-12T02:04:01.621Z,77.73
2017-03-12T02:05:11.106Z,77.45
2017-03-12T02:06:21.334Z,77.54
2017-03-12T02:07:31.202Z,78.2
2017-03-12T02:08:41.442Z,77.92
2017-03-12T02:09:51.680Z,78.02
2017-03-12T02:11:01.524Z,78.02
2017-03-12T02:12:11.753Z,78.2
2017-03-12T02:13:22.282Z,78.3
2017-03-12T02:14:31.746Z,78.3
2017-03-12T02:15:42.370Z,78.3
2017-03-12T02:16:52.278Z,78.3
2017-03-12T02:18:02.510Z,78.11
2017-03-12T02:19:12.419Z,78.11
2017-03-12T02:20:22.382Z,78.02
2017-03-12T02:21:32.632Z,78.3
2017-03-12T02:22:42.516Z,78.58
2017-03-12T02:23:52.056Z,78.2
2017-03-12T02:25:02.568Z,78.2
2017-03-12T02:26:12.443Z,78.39
2017-03-12T02:27:22.607Z,78.11
2017-03-12T02:28:32.866Z,77.92
2017-03-12T02:29:42.711Z,78.11
2017-03-12T02:30:52.543Z,78.3
2017-03-12T02:32:02.790Z,78.11
2017-03-12T02:33:12.330Z,78.11
2017-03-12T02:34:21.479Z,77.83
2017-03-12T02:35:30.998Z,78.3
2017-03-12T02:36:41.291Z,78.07
2017-03-12T02:37:51.555Z,77.92
2017-03-12T02:39:01.818Z,78.39
2017-03-12T02:40:11.776Z,78.16
2017-03-12T02:41:21.611Z,78.3
2017-03-12T02:42:31.732Z,78.11
2017-03-12T02:43:41.233Z,78.3
2017-03-12T02:44:51.517Z,77.97
2017-03-12T02:46:01.750Z,78.2
2017-03-12T02:47:12.022Z,78.07
2017-03-12T02:48:22.652Z,78.07
2017-03-12T02:49:32.890Z,78.54
2017-03-12T02:50:42.355Z,78.26
2017-03-12T02:51:52.203Z,78.26
2017-03-12T02:53:02.077Z,78.92
2017-03-12T02:54:12.158Z,78.45
2017-03-12T02:55:21.255Z,78.83
2017-03-12T02:56:31.104Z,78.54
2017-03-12T02:57:40.968Z,78.35
2017-03-12T02:58:51.233Z,78.92
2017-03-12T03:00:00.754Z,78.83
2017-03-12T03:01:10.644Z,78.45
2017-03-12T03:02:21.306Z,78.83
2017-03-12T03:03:30.393Z,79.02
2017-03-12T03:04:40.287Z,78.92
2017-03-12T03:05:49.136Z,78.83
2017-03-12T03:06:58.761Z,78.83
2017-03-12T03:08:08.652Z,78.64
2017-03-12T03:09:17.721Z,78.92
2017-03-12T03:10:27.977Z,79.02
2017-03-12T03:11:38.074Z,78.92
2017-03-12T03:12:47.923Z,79.39
2017-03-12T03:13:57.783Z,79.58
2017-03-12T03:15:08.396Z,79.39
2017-03-12T03:16:18.257Z,79.39
2017-03-12T03:17:27.337Z,80.06
2017-03-12T03:18:37.556Z,80.06
2017-03-12T03:19:47.395Z,79.68
2017-03-12T03:20:58.019Z,79.87
2017-03-12T03:22:07.875Z,79.77
2017-03-12T03:23:18.038Z,79.87
2017-03-12T03:24:27.269Z,79.77
2017-03-12T03:25:36.154Z,80.15
2017-03-12T03:26:45.761Z,80.25
2017-03-12T03:27:55.365Z,79.87
2017-03-12T03:29:04.577Z,79.96
2017-03-12T03:30:13.785Z,80.06
2017-03-12T03:31:22.624Z,80.34
2017-03-12T03:32:32.289Z,80.25
2017-03-12T03:33:41.182Z,80.44
2017-03-12T03:34:50.817Z,80.34
2017-03-12T03:36:00.442Z,80.72
2017-03-12T03:37:09.706Z,80.44
2017-03-12T03:38:18.468Z,80.72
2017-03-12T03:39:28.350Z,80.72
2017-03-12T03:40:38.069Z,80.44
2017-03-12T03:41:48.289Z,80.53
2017-03-12T03:42:58.536Z,80.34
2017-03-12T03:44:07.605Z,80.34
2017-03-12T03:45:16.681Z,80.34
2017-03-12T03:46:26.899Z,80.53
2017-03-12T03:47:37.127Z,80.3
2017-03-12T03:48:46.597Z,80.34
2017-03-12T03:49:56.438Z,80.44
2017-03-12T03:51:05.924Z,80.4
2017-03-12T03:52:16.019Z,80.4
2017-03-12T03:53:25.856Z,80.87
2017-03-12T03:54:35.319Z,80.77
2017-03-12T03:55:44.812Z,81.01
2017-03-12T03:56:53.892Z,80.68
2017-03-12T03:58:04.127Z,80.77
2017-03-12T03:59:13.987Z,81.01
2017-03-12T04:00:24.598Z,80.82
2017-03-12T04:01:34.470Z,81.01
2017-03-12T04:02:43.926Z,80.44
2017-03-12T04:03:54.153Z,80.63
2017-03-12T04:05:03.986Z,80.82
2017-03-12T04:06:14.214Z,80.72
2017-03-12T04:07:24.426Z,80.82
2017-03-12T04:08:33.887Z,80.53
2017-03-12T04:09:43.922Z,80.82
2017-03-12T04:10:54.533Z,80.34
2017-03-12T04:12:04.775Z,80.63
2017-03-12T04:13:14.620Z,80.82
2017-03-12T04:14:24.462Z,80.91
2017-03-12T04:15:34.710Z,80.63
2017-03-12T04:16:45.310Z,80.63
2017-03-12T04:17:55.548Z,80.72
2017-03-12T04:19:05.019Z,80.82
2017-03-12T04:20:14.864Z,80.91
2017-03-12T04:21:24.738Z,80.44
2017-03-12T04:22:34.613Z,80.34
2017-03-12T04:23:44.832Z,80.25
2017-03-12T04:24:53.936Z,79.96
2017-03-12T04:26:03.791Z,80.06
2017-03-12T04:27:13.150Z,80.06
2017-03-12T04:28:22.991Z,79.68
2017-03-12T04:29:33.238Z,80.25
2017-03-12T04:30:42.702Z,80.06
2017-03-12T04:31:52.935Z,80.34
2017-03-12T04:33:03.145Z,79.87
2017-03-12T04:34:12.617Z,79.96
2017-03-12T04:35:22.846Z,80.44
2017-03-12T04:36:32.686Z,80.15
2017-03-12T04:37:42.191Z,80.44
2017-03-12T04:38:51.916Z,80.06
2017-03-12T04:40:00.991Z,79.96
2017-03-12T04:41:10.095Z,80.06
2017-03-12T04:42:19.978Z,79.96
2017-03-12T04:43:30.239Z,80.25
2017-03-12T04:44:39.348Z,80.34
2017-03-12T04:45:49.617Z,80.06
2017-03-12T04:46:59.465Z,80.44
2017-03-12T04:48:09.331Z,80.34
2017-03-12T04:49:18.429Z,80.34
2017-03-12T04:50:27.881Z,80.34
2017-03-12T04:51:37.745Z,80.44
2017-03-12T04:52:47.632Z,79.87
2017-03-12T04:53:57.984Z,79.96
2017-03-12T04:55:08.002Z,79.77
2017-03-12T04:56:18.417Z,79.77
2017-03-12T04:57:28.163Z,80.44
2017-03-12T04:58:38.837Z,79.96
2017-03-12T04:59:48.259Z,80.06
2017-03-12T05:00:58.486Z,79.68
2017-03-12T05:02:08.429Z,80.06
2017-03-12T05:03:18.687Z,79.77
2017-03-12T05:04:28.530Z,79.58
2017-03-12T05:05:39.220Z,80.15
2017-03-12T05:06:49.450Z,80.06
2017-03-12T05:07:59.713Z,80.15
2017-03-12T05:09:09.959Z,79.58
2017-03-12T05:10:19.841Z,79.68
2017-03-12T05:11:29.760Z,79.68
2017-03-12T05:12:39.630Z,80.25
2017-03-12T05:13:49.736Z,79.68
2017-03-12T05:15:00.056Z,79.96
2017-03-12T05:16:09.938Z,79.96
2017-03-12T05:17:19.799Z,79.96
2017-03-12T05:18:29.640Z,80.06
2017-03-12T05:19:39.929Z,79.96
2017-03-12T05:20:49.775Z,79.58
2017-03-12T05:22:00.037Z,79.87
2017-03-12T05:23:09.151Z,79.68
2017-03-12T05:24:19.065Z,79.87
2017-03-12T05:25:29.972Z,79.77
2017-03-12T05:26:39.866Z,79.96
2017-03-12T05:27:49.701Z,79.96
2017-03-12T05:28:59.536Z,79.39
2017-03-12T05:30:09.810Z,79.3
2017-03-12T05:31:18.888Z,79.39
2017-03-12T05:32:28.369Z,79.68
2017-03-12T05:33:38.212Z,79.49
2017-03-12T05:34:48.488Z,79.68
2017-03-12T05:35:59.102Z,79.49
2017-03-12T05:37:08.567Z,79.49
2017-03-12T05:38:18.779Z,79.49
2017-03-12T05:39:29.389Z,79.49
2017-03-12T05:40:39.620Z,80.06
2017-03-12T05:41:49.466Z,79.87
2017-03-12T05:42:59.562Z,79.96
2017-03-12T05:44:08.664Z,79.68
2017-03-12T05:45:18.631Z,79.68
2017-03-12T05:46:27.774Z,79.96
2017-03-12T05:47:37.704Z,79.58
2017-03-12T05:48:47.554Z,79.87
2017-03-12T05:49:58.204Z,79.87
2017-03-12T05:51:07.326Z,79.39
2017-03-12T05:52:17.183Z,79.49
2017-03-12T05:53:26.273Z,79.77
2017-03-12T05:54:35.780Z,79.68
2017-03-12T05:55:45.647Z,78.83
2017-03-12T05:56:55.889Z,78.92
2017-03-12T05:58:05.768Z,78.83
2017-03-12T05:59:15.244Z,79.11
2017-03-12T06:00:25.783Z,79.02
2017-03-12T06:01:35.639Z,79.21
2017-03-12T06:02:46.287Z,79.15
2017-03-12T06:03:56.141Z,79.25
2017-03-12T06:05:04.903Z,78.96
2017-03-12T06:06:14.394Z,78.67
2017-03-12T06:07:24.238Z,78.87
2017-03-12T06:08:34.479Z,78.96
2017-03-12T06:09:44.736Z,78.87
2017-03-12T06:10:53.873Z,78.39
2017-03-12T06:12:04.360Z,78.77
2017-03-12T06:13:14.220Z,78.39
2017-03-12T06:14:24.470Z,78.87
2017-03-12T06:15:34.711Z,78.67
2017-03-12T06:16:45.314Z,78.96
2017-03-12T06:17:55.183Z,78.58
2017-03-12T06:19:05.411Z,78.67
2017-03-12T06:20:15.306Z,79.25
2017-03-12T06:21:25.541Z,78.77
2017-03-12T06:22:34.616Z,78.87
2017-03-12T06:23:45.091Z,78.67
2017-03-12T06:24:54.711Z,79.06
2017-03-12T06:26:04.561Z,78.67
2017-03-12T06:27:14.023Z,78.58
2017-03-12T06:28:24.055Z,78.11
2017-03-12T06:29:33.937Z,78.2
2017-03-12T06:30:44.198Z,78.05
2017-03-12T06:31:54.806Z,78.15
2017-03-12T06:33:04.664Z,77.77
2017-03-12T06:34:14.526Z,77.67
2017-03-12T06:35:24.393Z,77.67
2017-03-12T06:36:33.887Z,77.29
2017-03-12T06:37:44.124Z,76.82
2017-03-12T06:38:54.355Z,77.11
2017-03-12T06:40:04.580Z,77.11
2017-03-12T06:41:13.268Z,76.73
2017-03-12T06:42:23.489Z,76.82
2017-03-12T06:43:33.345Z,76.34
2017-03-12T06:44:43.187Z,76.82
2017-03-12T06:45:53.035Z,76.82
2017-03-12T06:47:03.522Z,77.11
2017-03-12T06:48:13.749Z,76.44
2017-03-12T06:49:23.988Z,76.54
2017-03-12T06:50:33.450Z,76.54
2017-03-12T06:51:43.688Z,76.15
2017-03-12T06:52:53.543Z,76.25
2017-03-12T06:54:03.414Z,76.2
2017-03-12T06:55:13.272Z,76.34
2017-03-12T06:56:22.741Z,76.39
2017-03-12T06:57:32.591Z,76.48
2017-03-12T06:58:42.693Z,76.48
2017-03-12T06:59:52.540Z,76.29
2017-03-12T07:01:02.392Z,76.29
2017-03-12T07:02:12.239Z,76.2
2017-03-12T07:03:22.468Z,75.72
2017-03-12T07:04:32.319Z,76.2
2017-03-12T07:05:42.171Z,75.91
2017-03-12T07:06:52.430Z,75.81
2017-03-12T07:08:02.279Z,75.81
2017-03-12T07:09:12.893Z,76.1
2017-03-12T07:10:22.992Z,75.34
2017-03-12T07:11:32.071Z,75.72
2017-03-12T07:12:42.283Z,74.96
2017-03-12T07:13:52.884Z,75.62
2017-03-12T07:15:02.739Z,75.24
2017-03-12T07:16:12.966Z,74.96
2017-03-12T07:17:22.829Z,74.96
2017-03-12T07:18:32.293Z,75.15
2017-03-12T07:19:42.521Z,74.87
2017-03-12T07:20:52.735Z,75.43
2017-03-12T07:22:02.847Z,75.15
2017-03-12T07:23:12.696Z,75.15
2017-03-12T07:24:22.924Z,74.87
2017-03-12T07:25:33.144Z,74.87
2017-03-12T07:26:43.377Z,75.15
2017-03-12T07:27:53.664Z,75.15
2017-03-12T07:29:03.498Z,75.72
2017-03-12T07:30:12.586Z,75.34
2017-03-12T07:31:23.256Z,75.81
2017-03-12T07:32:33.113Z,75.81
2017-03-12T07:33:43.098Z,75.53
2017-03-12T07:34:53.330Z,75.81
2017-03-12T07:36:03.210Z,76.01
2017-03-12T07:37:13.131Z,75.91
2017-03-12T07:38:22.642Z,76.01
2017-03-12T07:39:32.972Z,76.2
2017-03-12T07:40:43.218Z,76.01
2017-03-12T07:41:53.466Z,76.57
2017-03-12T07:43:03.790Z,76.1
2017-03-12T07:44:14.415Z,76.2
2017-03-12T07:45:24.608Z,76.01
2017-03-12T07:46:34.852Z,76.1
2017-03-12T07:47:44.807Z,76.2
2017-03-12T07:48:55.029Z,76.23
2017-03-12T07:50:04.860Z,76.2
2017-03-12T07:51:15.166Z,76.04
2017-03-12T07:52:24.637Z,76.14
2017-03-12T07:53:35.284Z,76.04
2017-03-12T07:54:45.216Z,76.04
2017-03-12T07:55:54.318Z,75.76
2017-03-12T07:57:04.546Z,75.76
2017-03-12T07:58:14.785Z,75.67
2017-03-12T07:59:23.514Z,75.57
2017-03-12T08:00:33.413Z,75.57
2017-03-12T08:01:43.673Z,75.38
2017-03-12T08:02:54.281Z,75.28
2017-03-12T08:04:04.496Z,75.09
2017-03-12T08:05:14.002Z,74.33
2017-03-12T08:06:23.470Z,74.15
2017-03-12T08:07:33.307Z,74.05
2017-03-12T08:08:43.182Z,75
2017-03-12T08:09:53.023Z,74.47
2017-03-12T08:11:02.525Z,73.99
2017-03-12T08:12:12.014Z,73.9
2017-03-12T08:13:22.264Z,73.8
2017-03-12T08:14:32.120Z,73.33
2017-03-12T08:15:42.722Z,72.85
2017-03-12T08:16:52.960Z,73.23
2017-03-12T08:18:02.411Z,72.66
2017-03-12T08:19:11.869Z,72.6
2017-03-12T08:20:21.187Z,72.51
2017-03-12T08:21:31.034Z,72.56
2017-03-12T08:22:41.643Z,72.89
2017-03-12T08:23:51.495Z,72.7
2017-03-12T08:25:02.101Z,72.51
2017-03-12T08:26:11.196Z,72.89
2017-03-12T08:27:21.034Z,72.41
2017-03-12T08:28:30.524Z,72.41
2017-03-12T08:29:39.980Z,71.94
2017-03-12T08:30:49.049Z,71.84
2017-03-12T08:31:59.177Z,71.84
2017-03-12T08:33:09.442Z,72.03
2017-03-12T08:34:19.297Z,72.13
2017-03-12T08:35:29.144Z,72.03
2017-03-12T08:36:38.257Z,71.75
2017-03-12T08:37:48.102Z,71.78
2017-03-12T08:38:57.953Z,71.69
2017-03-12T08:40:08.188Z,71.41
2017-03-12T08:41:18.031Z,71.31
2017-03-12T08:42:27.519Z,71.02
2017-03-12T08:43:37.615Z,71.22
2017-03-12T08:44:47.072Z,70.54
2017-03-12T08:45:57.325Z,70.93
2017-03-12T08:47:07.193Z,70.64
2017-03-12T08:48:17.041Z,70.3
2017-03-12T08:49:27.297Z,70.2
2017-03-12T08:50:37.905Z,70.58
2017-03-12T08:51:47.748Z,69.92
2017-03-12T08:52:57.970Z,69.82
2017-03-12T08:54:07.465Z,69.92
2017-03-12T08:55:16.790Z,69.44
2017-03-12T08:56:26.281Z,68.81
2017-03-12T08:57:35.793Z,68.9
2017-03-12T08:58:45.633Z,68.81
2017-03-12T08:59:55.490Z,68.94
2017-03-12T09:01:04.969Z,68.37
2017-03-12T09:02:14.827Z,68.37
2017-03-12T09:03:24.296Z,68.12
2017-03-12T09:04:34.146Z,67.26
2017-03-12T09:05:43.995Z,66.91
2017-03-12T09:06:54.557Z,66.53
2017-03-12T09:08:04.426Z,66.44
2017-03-12T09:09:14.324Z,65.52
2017-03-12T09:10:23.426Z,64.75
2017-03-12T09:11:33.315Z,64.12
2017-03-12T09:12:42.791Z,63.07
2017-03-12T09:13:52.644Z,62.88
2017-03-12T09:15:02.509Z,61.86
2017-03-12T09:16:12.358Z,61.19
2017-03-12T09:17:21.470Z,60.61
2017-03-12T09:18:32.010Z,58.07
2017-03-12T09:19:41.577Z,57.68
2017-03-12T09:20:51.492Z,58.07
2017-03-12T09:22:00.579Z,57.78
2017-03-12T09:23:10.511Z,57.5
2017-03-12T09:24:20.006Z,54.34
2017-03-12T09:25:29.540Z,53.29
2017-03-12T09:26:38.652Z,53
2017-03-12T09:27:48.557Z,52.75
2017-03-12T09:28:58.073Z,52.17
2017-03-12T09:30:07.957Z,51.6
2017-03-12T09:31:17.921Z,51.03
2017-03-12T09:32:27.913Z,50.45
2017-03-12T09:33:38.164Z,49.21
2017-03-12T09:34:48.081Z,47.87
2017-03-12T09:35:58.313Z,47.3
2017-03-12T09:37:08.550Z,47.11
2017-03-12T09:38:18.440Z,45.98
2017-03-12T09:39:28.296Z,45.12
2017-03-12T09:40:36.996Z,43.04
2017-03-12T09:41:46.361Z,42.47
2017-03-12T09:42:55.451Z,41.8
2017-03-12T09:44:04.949Z,41.05
2017-03-12T09:45:14.045Z,40.69
2017-03-12T09:46:23.907Z,39.85
2017-03-12T09:47:33.276Z,38.62
2017-03-12T09:48:43.761Z,38.72
2017-03-12T09:49:53.636Z,37.49
2017-03-12T09:51:03.098Z,36.26
2017-03-12T09:52:12.973Z,35.13
2017-03-12T09:53:22.696Z,35.03
2017-03-12T09:54:32.553Z,35.22
2017-03-12T09:55:42.408Z,34.55
2017-03-12T09:56:52.284Z,33.59
2017-03-12T09:58:02.537Z,33.5
2017-03-12T09:59:12.386Z,32.55
2017-03-12T10:00:22.622Z,33.61
2017-03-12T10:01:32.489Z,33.13
2017-03-12T10:02:42.370Z,32.46
2017-03-12T10:03:52.225Z,33.61
2017-03-12T10:05:02.344Z,33.13
2017-03-12T10:06:12.197Z,32.73
2017-03-12T10:07:22.061Z,32.92
2017-03-12T10:08:31.524Z,32.73
2017-03-12T10:09:41.381Z,31.38
2017-03-12T10:10:51.252Z,31.59
2017-03-12T10:12:00.721Z,31.49
2017-03-12T10:13:09.829Z,32.15
2017-03-12T10:14:19.683Z,33.21
2017-03-12T10:15:29.596Z,33.67
2017-03-12T10:16:40.105Z,33.67
2017-03-12T10:17:50.054Z,34.53
2017-03-12T10:18:59.904Z,34.25
2017-03-12T10:20:09.429Z,34.06
2017-03-12T10:21:19.134Z,34.23
2017-03-12T10:22:28.929Z,34.15
2017-03-12T10:23:38.527Z,34.34
2017-03-12T10:24:48.333Z,33.67
2017-03-12T10:25:58.322Z,33.29
2017-03-12T10:27:08.563Z,34.06
2017-03-12T10:28:18.508Z,34.06
2017-03-12T10:29:27.995Z,34.73
2017-03-12T10:30:37.843Z,33
2017-03-12T10:31:46.935Z,33.27
2017-03-12T10:32:56.816Z,33.17
2017-03-12T10:34:06.947Z,34.02
2017-03-12T10:35:16.411Z,34.29
2017-03-12T10:36:25.527Z,34.67
2017-03-12T10:37:34.997Z,35.35
2017-03-12T10:38:44.865Z,34.2
2017-03-12T10:39:54.756Z,33.91
2017-03-12T10:41:03.549Z,33.24
2017-03-12T10:42:12.652Z,33.25
2017-03-12T10:43:22.523Z,33.73
2017-03-12T10:44:31.616Z,33.84
2017-03-12T10:45:40.717Z,34.42
2017-03-12T10:46:50.192Z,33
2017-03-12T10:48:00.041Z,32.62
2017-03-12T10:49:10.299Z,32.33
2017-03-12T10:50:20.575Z,31.37
2017-03-12T10:51:30.429Z,31.37
2017-03-12T10:52:40.299Z,30.89
2017-03-12T10:53:49.429Z,31.18
2017-03-12T10:54:59.271Z,32.14
2017-03-12T10:56:09.501Z,32.33
2017-03-12T10:57:18.602Z,31.46
2017-03-12T10:58:28.486Z,31.95
2017-03-12T10:59:38.759Z,31.38
2017-03-12T11:00:49.017Z,31
2017-03-12T11:01:58.943Z,30.71
2017-03-12T11:03:08.414Z,30.9
2017-03-12T11:04:18.332Z,30.14
2017-03-12T11:05:28.198Z,31
2017-03-12T11:06:38.094Z,30.92
2017-03-12T11:07:47.574Z,29.38
2017-03-12T11:08:57.040Z,29.1
2017-03-12T11:10:06.595Z,28.52
2017-03-12T11:11:16.900Z,28.15
2017-03-12T11:12:27.172Z,26.43
2017-03-12T11:13:36.666Z,25.68
2017-03-12T11:14:46.980Z,25.31
2017-03-12T11:15:56.491Z,24.74
2017-03-12T11:17:05.975Z,24.93
2017-03-12T11:18:16.245Z,23.6
2017-03-12T11:19:26.122Z,23.21
2017-03-12T11:20:37.830Z,22.26
2017-03-12T11:21:47.366Z,22.55
2017-03-12T11:22:56.861Z,23.02
2017-03-12T11:24:05.976Z,24.35
2017-03-12T11:25:15.846Z,24.35
2017-03-12T11:26:26.091Z,23.88
2017-03-12T11:27:35.204Z,24.16
2017-03-12T11:28:45.161Z,25.31
2017-03-12T11:29:54.661Z,26.45
2017-03-12T11:31:04.163Z,26.34
2017-03-12T11:32:13.502Z,26.82
2017-03-12T11:33:22.995Z,27.09
2017-03-12T11:34:32.855Z,27.76
2017-03-12T11:35:41.969Z,28.04
2017-03-12T11:36:51.828Z,28.5
2017-03-12T11:38:01.488Z,29.17
2017-03-12T11:39:10.991Z,29.35
2017-03-12T11:40:20.873Z,29.35
2017-03-12T11:41:30.335Z,30.02
2017-03-12T11:42:40.204Z,30.32
2017-03-12T11:43:50.200Z,30.41
2017-03-12T11:45:00.058Z,30.01
2017-03-12T11:46:09.573Z,30.01
2017-03-12T11:47:19.313Z,29.91
2017-03-12T11:48:28.634Z,30.58
2017-03-12T11:49:37.914Z,30.4
2017-03-12T11:50:47.010Z,29.26
2017-03-12T11:51:56.915Z,28.88
2017-03-12T11:53:06.804Z,28.68
2017-03-12T11:54:16.337Z,29.15
2017-03-12T11:55:26.191Z,29.63
2017-03-12T11:56:35.709Z,29.05
2017-03-12T11:57:45.167Z,28.67
2017-03-12T11:58:54.256Z,28.48
2017-03-12T12:00:03.732Z,28.68
2017-03-12T12:01:13.083Z,29.16
2017-03-12T12:02:22.578Z,29.45
2017-03-12T12:03:32.422Z,29.45
2017-03-12T12:04:41.902Z,29.55
2017-03-12T12:05:51.358Z,28.3
2017-03-12T12:07:00.818Z,27.82
2017-03-12T12:08:11.078Z,28.39
2017-03-12T12:09:20.559Z,28.2
2017-03-12T12:10:29.672Z,28.39
2017-03-12T12:11:39.544Z,28.49
2017-03-12T12:12:49.809Z,28.01
2017-03-12T12:14:00.030Z,28.01
2017-03-12T12:15:09.886Z,26.95
2017-03-12T12:16:19.737Z,27.63
2017-03-12T12:17:29.589Z,27.61
2017-03-12T12:18:39.441Z,27.33
2017-03-12T12:19:49.699Z,28.38
2017-03-12T12:20:59.645Z,28.48
2017-03-12T12:22:09.521Z,28.67
2017-03-12T12:23:19.384Z,28.57
2017-03-12T12:24:29.255Z,29.34
2017-03-12T12:25:38.745Z,29.15
2017-03-12T12:26:49.377Z,28.57
2017-03-12T12:27:58.488Z,29.13
2017-03-12T12:29:08.370Z,30.29
2017-03-12T12:30:18.477Z,30
2017-03-12T12:31:29.159Z,30.19
2017-03-12T12:32:39.054Z,30.67
2017-03-12T12:33:49.346Z,30.38
2017-03-12T12:34:58.871Z,30.29
2017-03-12T12:36:08.774Z,28.46
2017-03-12T12:37:18.636Z,27.6
2017-03-12T12:38:28.142Z,28.46
2017-03-12T12:39:37.655Z,28.94
2017-03-12T12:40:47.566Z,29.13
2017-03-12T12:41:58.057Z,29.23
2017-03-12T12:43:07.906Z,29.33
2017-03-12T12:44:18.155Z,29.9
2017-03-12T12:45:28.764Z,31.24
2017-03-12T12:46:38.328Z,31.53
2017-03-12T12:47:49.051Z,32.87
2017-03-12T12:48:59.287Z,33.75
2017-03-12T12:50:09.170Z,32.31
2017-03-12T12:51:19.403Z,30.2
2017-03-12T12:52:29.712Z,31.16
2017-03-12T12:53:39.574Z,30.87
2017-03-12T12:54:49.810Z,31.07
2017-03-12T12:56:00.055Z,31.54
2017-03-12T12:57:10.324Z,31.26
2017-03-12T12:58:20.577Z,30.3
2017-03-12T12:59:30.455Z,29.24
2017-03-12T13:00:39.923Z,27.33
2017-03-12T13:01:50.175Z,27.03
2017-03-12T13:03:00.795Z,28.17
2017-03-12T13:04:11.035Z,28.37
2017-03-12T13:05:20.540Z,28.94
2017-03-12T13:06:31.170Z,28.77
2017-03-12T13:07:41.553Z,28.77
2017-03-12T13:08:51.066Z,28.28
2017-03-12T13:10:01.441Z,29.15
2017-03-12T13:11:11.768Z,29.34
2017-03-12T13:12:22.086Z,29.24
2017-03-12T13:13:32.811Z,28.67
2017-03-12T13:14:42.663Z,28.48
2017-03-12T13:15:52.157Z,27.81
2017-03-12T13:17:02.402Z,28.38
2017-03-12T13:18:12.682Z,28.86
2017-03-12T13:19:22.541Z,28.48
2017-03-12T13:20:32.012Z,28.38
2017-03-12T13:21:41.486Z,28.67
2017-03-12T13:22:51.768Z,27.9
2017-03-12T13:24:02.005Z,27.52
2017-03-12T13:25:11.515Z,28.38
2017-03-12T13:26:21.767Z,28
2017-03-12T13:27:32.391Z,28.09
2017-03-12T13:28:42.237Z,27.9
2017-03-12T13:29:52.469Z,28.67
2017-03-12T13:31:01.568Z,28.39
2017-03-12T13:32:10.667Z,27.92
2017-03-12T13:33:20.525Z,28.67
2017-03-12T13:34:30.792Z,27.82
2017-03-12T13:35:40.638Z,27.34
2017-03-12T13:36:51.268Z,28.11
2017-03-12T13:38:01.502Z,28.68
2017-03-12T13:39:10.962Z,29.35
2017-03-12T13:40:21.937Z,28.01
2017-03-12T13:41:31.813Z,26.67
2017-03-12T13:42:41.690Z,26.67
2017-03-12T13:43:52.313Z,26.38
2017-03-12T13:45:02.599Z,26.57
2017-03-12T13:46:13.219Z,26.38
2017-03-12T13:47:23.086Z,27.25
2017-03-12T13:48:32.561Z,28.49
2017-03-12T13:49:42.047Z,28.68
2017-03-12T13:50:52.347Z,29.64
2017-03-12T13:52:02.505Z,29.34
2017-03-12T13:53:11.597Z,30.01
2017-03-12T13:54:21.450Z,30.87
2017-03-12T13:55:31.305Z,31.35
2017-03-12T13:56:40.812Z,29.53
2017-03-12T13:57:50.675Z,27.92
2017-03-12T13:59:00.916Z,28.68
2017-03-12T14:00:11.174Z,28.01
2017-03-12T14:01:21.018Z,28.39
2017-03-12T14:02:29.731Z,28.3
2017-03-12T14:03:39.999Z,28.88
2017-03-12T14:04:49.864Z,29.26
2017-03-12T14:05:59.725Z,30.41
2017-03-12T14:07:09.626Z,30.51
2017-03-12T14:08:19.478Z,30.41
2017-03-12T14:09:29.996Z,30.22
2017-03-12T14:10:39.854Z,28.7
2017-03-12T14:11:49.706Z,27.83
2017-03-12T14:12:59.564Z,28.03
2017-03-12T14:14:09.425Z,26.79
2017-03-12T14:15:19.666Z,26.89
2017-03-12T14:16:29.523Z,26.5
2017-03-12T14:17:39.002Z,25.54
2017-03-12T14:18:48.876Z,25.16
2017-03-12T14:19:58.339Z,24.58
2017-03-12T14:21:08.440Z,25.45
2017-03-12T14:22:18.679Z,25.83
2017-03-12T14:23:28.994Z,26.51
2017-03-12T14:24:38.465Z,26.81
2017-03-12T14:25:48.318Z,27.67
2017-03-12T14:26:57.780Z,27.86
2017-03-12T14:28:07.629Z,27.28
2017-03-12T14:29:17.513Z,26.15
2017-03-12T14:30:27.403Z,25.94
2017-03-12T14:31:37.275Z,24.69
2017-03-12T14:32:47.138Z,25.84
2017-03-12T14:33:56.990Z,26.42
2017-03-12T14:35:06.862Z,26.81
2017-03-12T14:36:16.738Z,27.19
2017-03-12T14:37:26.596Z,26.9
2017-03-12T14:38:36.838Z,25.17
2017-03-12T14:39:46.709Z,23.73
2017-03-12T14:40:56.982Z,23.73
2017-03-12T14:42:07.229Z,24.69
2017-03-12T14:43:16.720Z,25.27
2017-03-12T14:44:26.956Z,24.99
2017-03-12T14:45:36.830Z,24.9
2017-03-12T14:46:47.487Z,23.65
2017-03-12T14:47:57.366Z,24.22
2017-03-12T14:49:07.219Z,24.32
2017-03-12T14:50:17.329Z,23.74
2017-03-12T14:51:27.571Z,23.55
2017-03-12T14:52:37.046Z,23.65
2017-03-12T14:53:47.292Z,24.03
2017-03-12T14:54:57.558Z,24.03
2017-03-12T14:56:07.419Z,23.36
2017-03-12T14:57:16.898Z,23.84
2017-03-12T14:58:26.792Z,24.32
2017-03-12T14:59:36.654Z,24.8
2017-03-12T15:00:46.887Z,24.9
2017-03-12T15:01:56.741Z,23.74
2017-03-12T15:03:06.990Z,22.88